createdAt,value
2018-09-23T00:00:20.233Z,65.50
2018-09-23T00:02:48.178Z,64.90
2018-09-23T00:05:16.154Z,65.30
2018-09-23T00:07:44.122Z,65.90
2018-09-23T00:10:12.124Z,65.90
2018-09-23T00:12:40.069Z,65.70
2018-09-23T00:15:08.104Z,65.50
2018-09-23T00:17:36.216Z,65.30
2018-09-23T00:20:04.383Z,65.20
2018-09-23T00:22:32.355Z,65.30
2018-09-23T00:25:00.316Z,65.20
2018-09-23T00:27:28.612Z,65.30
2018-09-23T00:29:56.566Z,65.50
2018-09-23T00:32:25.264Z,65.30
2018-09-23T00:34:53.287Z,65.20
2018-09-23T00:37:22.026Z,65.20
2018-09-23T00:39:50.040Z,65.20
2018-09-23T00:42:17.985Z,65.10
2018-09-23T00:44:46.036Z,64.90
2018-09-23T00:47:14.257Z,64.80
2018-09-23T00:49:42.190Z,64.90
2018-09-23T00:52:11.056Z,64.90
2018-09-23T00:54:39.135Z,65.10
2018-09-23T00:57:07.112Z,65.20
2018-09-23T00:59:35.092Z,65.20
2018-09-23T01:02:03.063Z,65.00
2018-09-23T01:04:31.161Z,65.20
2018-09-23T01:06:59.127Z,65.20
2018-09-23T01:09:28.072Z,65.40
2018-09-23T01:11:56.048Z,65.50
2018-09-23T01:14:24.123Z,65.60
2018-09-23T01:16:52.168Z,65.50
2018-09-23T01:19:20.264Z,65.30
2018-09-23T01:21:48.527Z,65.30
2018-09-23T01:24:16.549Z,65.50
2018-09-23T01:26:44.591Z,65.80
2018-09-23T01:29:12.555Z,65.70
2018-09-23T01:31:40.526Z,65.90
2018-09-23T01:34:08.599Z,66.00
2018-09-23T01:36:37.701Z,66.00
2018-09-23T01:39:07.001Z,66.30
2018-09-23T01:41:38.294Z,66.70
2018-09-23T01:44:06.322Z,66.60
2018-09-23T01:46:34.342Z,66.70
2018-09-23T01:49:02.354Z,66.90
2018-09-23T01:51:30.329Z,67.40
2018-09-23T01:53:58.331Z,66.90
2018-09-23T01:56:26.264Z,66.60
2018-09-23T01:58:54.333Z,66.50
2018-09-23T02:01:22.298Z,66.30
2018-09-23T02:03:50.335Z,66.20
2018-09-23T02:06:18.395Z,66.20
2018-09-23T02:08:46.436Z,66.40
2018-09-23T02:11:14.494Z,66.40
2018-09-23T02:13:42.482Z,66.50
2018-09-23T02:16:10.530Z,66.70
2018-09-23T02:18:38.513Z,67.00
2018-09-23T02:21:06.577Z,66.90
2018-09-23T02:23:34.663Z,67.20
2018-09-23T02:26:02.643Z,67.30
2018-09-23T02:28:30.761Z,67.10
2018-09-23T02:30:58.758Z,67.00
2018-09-23T02:33:26.743Z,66.80
2018-09-23T02:35:54.809Z,66.70
2018-09-23T02:38:22.780Z,66.70
2018-09-23T02:40:50.828Z,67.00
2018-09-23T02:43:18.771Z,67.20
2018-09-23T02:45:46.791Z,67.30
2018-09-23T02:48:14.781Z,67.30
2018-09-23T02:50:42.727Z,67.20
2018-09-23T02:53:10.694Z,67.20
2018-09-23T02:55:38.768Z,67.10
2018-09-23T02:58:13.531Z,67.60
2018-09-23T03:00:41.479Z,67.90
2018-09-23T03:03:09.572Z,67.90
2018-09-23T03:05:37.612Z,67.80
2018-09-23T03:08:05.675Z,67.70
2018-09-23T03:10:33.685Z,67.40
2018-09-23T03:13:04.904Z,67.40
2018-09-23T03:15:32.971Z,67.40
2018-09-23T03:18:01.136Z,67.80
2018-09-23T03:20:29.070Z,68.00
2018-09-23T03:22:57.087Z,67.90
2018-09-23T03:25:25.056Z,68.00
2018-09-23T03:27:53.019Z,68.10
2018-09-23T03:30:21.086Z,68.10
2018-09-23T03:32:49.071Z,67.90
2018-09-23T03:35:17.100Z,68.00
2018-09-23T03:37:45.079Z,68.70
2018-09-23T03:40:13.180Z,68.00
2018-09-23T03:42:41.344Z,68.00
2018-09-23T03:45:09.464Z,67.80
2018-09-23T03:47:37.494Z,67.70
2018-09-23T03:50:05.465Z,67.70
2018-09-23T03:52:33.440Z,67.90
2018-09-23T03:55:01.438Z,68.00
2018-09-23T03:57:29.439Z,68.00
2018-09-23T03:59:57.495Z,68.90
2018-09-23T04:02:25.632Z,68.10
2018-09-23T04:04:53.611Z,68.10
2018-09-23T04:07:21.588Z,68.10
2018-09-23T04:09:50.555Z,67.90
2018-09-23T04:12:18.604Z,67.80
2018-09-23T04:14:47.147Z,67.80
2018-09-23T04:17:15.079Z,67.90
2018-09-23T04:19:43.271Z,68.10
2018-09-23T04:22:11.328Z,68.10
2018-09-23T04:24:39.418Z,68.00
2018-09-23T04:27:07.574Z,68.10
2018-09-23T04:29:35.540Z,68.90
2018-09-23T04:32:03.627Z,68.40
2018-09-23T04:34:31.783Z,68.10
2018-09-23T04:36:59.832Z,67.80
2018-09-23T04:39:27.832Z,67.60
2018-09-23T04:41:55.782Z,67.70
2018-09-23T04:44:27.422Z,67.90
2018-09-23T04:46:55.432Z,67.80
2018-09-23T04:49:23.374Z,68.30
2018-09-23T04:51:51.347Z,67.40
2018-09-23T04:54:19.319Z,67.40
2018-09-23T04:56:47.418Z,67.40
2018-09-23T04:59:15.365Z,67.60
2018-09-23T05:01:43.457Z,67.40
2018-09-23T05:04:11.415Z,67.30
2018-09-23T05:06:39.491Z,67.30
2018-09-23T05:09:08.282Z,67.40
2018-09-23T05:11:36.211Z,67.40
2018-09-23T05:14:04.480Z,67.30
2018-09-23T05:16:32.428Z,67.20
2018-09-23T05:19:00.450Z,67.10
2018-09-23T05:21:28.503Z,67.50
2018-09-23T05:23:56.501Z,67.10
2018-09-23T05:26:24.488Z,67.10
2018-09-23T05:28:52.529Z,67.20
2018-09-23T05:31:20.477Z,67.40
2018-09-23T05:33:48.447Z,67.30
2018-09-23T05:36:16.472Z,67.40
2018-09-23T05:38:44.535Z,67.60
2018-09-23T05:41:12.508Z,67.40
2018-09-23T05:43:40.511Z,67.40
2018-09-23T05:46:08.543Z,67.40
2018-09-23T05:48:36.485Z,67.30
2018-09-23T05:51:04.503Z,67.10
2018-09-23T05:53:34.173Z,66.90
2018-09-23T05:56:02.164Z,67.00
2018-09-23T05:58:30.362Z,67.00
2018-09-23T06:00:58.296Z,66.90
2018-09-23T06:03:26.388Z,67.00
2018-09-23T06:05:55.390Z,67.10
2018-09-23T06:08:23.449Z,67.00
2018-09-23T06:10:51.515Z,66.90
2018-09-23T06:13:19.602Z,67.00
2018-09-23T06:15:47.571Z,66.90
2018-09-23T06:18:15.640Z,66.90
2018-09-23T06:20:51.182Z,67.60
2018-09-23T06:23:19.239Z,66.70
2018-09-23T06:25:47.162Z,66.60
2018-09-23T06:28:15.190Z,66.70
2018-09-23T06:30:43.136Z,66.70
2018-09-23T06:33:14.835Z,67.00
2018-09-23T06:35:42.887Z,66.90
2018-09-23T06:38:10.937Z,66.70
2018-09-23T06:40:39.018Z,66.60
2018-09-23T06:43:06.993Z,66.60
2018-09-23T06:45:34.927Z,66.60
2018-09-23T06:48:02.854Z,66.60
2018-09-23T06:50:31.097Z,66.60
2018-09-23T06:52:59.052Z,66.70
2018-09-23T06:55:27.065Z,66.50
2018-09-23T06:57:58.453Z,66.50
2018-09-23T07:00:26.403Z,66.50
2018-09-23T07:02:54.428Z,66.60
2018-09-23T07:05:22.419Z,66.50
2018-09-23T07:07:50.514Z,66.30
2018-09-23T07:10:18.530Z,66.20
2018-09-23T07:12:46.534Z,66.30
2018-09-23T07:15:14.524Z,66.30
2018-09-23T07:17:42.474Z,66.00
2018-09-23T07:20:10.546Z,65.80
2018-09-23T07:22:38.486Z,66.00
2018-09-23T07:25:06.585Z,65.90
2018-09-23T07:27:34.807Z,65.80
2018-09-23T07:30:02.945Z,65.60
2018-09-23T07:32:31.782Z,65.50
2018-09-23T07:35:00.222Z,65.40
2018-09-23T07:37:28.189Z,65.30
2018-09-23T07:39:56.195Z,65.30
2018-09-23T07:42:24.322Z,65.10
2018-09-23T07:44:53.061Z,65.10
2018-09-23T07:47:21.012Z,65.00
2018-09-23T07:49:49.484Z,65.10
2018-09-23T07:52:17.745Z,65.10
2018-09-23T07:54:45.714Z,64.40
2018-09-23T07:57:13.982Z,64.80
2018-09-23T07:59:41.935Z,64.80
2018-09-23T08:02:10.161Z,64.80
2018-09-23T08:04:38.109Z,64.80
2018-09-23T08:07:06.277Z,64.70
2018-09-23T08:09:34.346Z,64.50
2018-09-23T08:12:02.319Z,64.40
2018-09-23T08:14:30.823Z,64.20
2018-09-23T08:16:58.315Z,64.00
2018-09-23T08:19:26.412Z,63.70
2018-09-23T08:21:54.367Z,63.90
2018-09-23T08:24:22.372Z,63.50
2018-09-23T08:29:18.819Z,62.70
2018-09-23T08:31:46.899Z,63.30
2018-09-23T08:34:14.931Z,63.40
2018-09-23T08:36:43.038Z,63.30
2018-09-23T08:39:11.212Z,63.00
2018-09-23T08:41:39.183Z,62.80
2018-09-23T08:44:07.157Z,62.80
2018-09-23T08:46:35.178Z,62.90
2018-09-23T08:49:03.203Z,62.50
2018-09-23T08:51:31.200Z,62.40
2018-09-23T08:53:59.235Z,62.30
2018-09-23T08:56:27.580Z,61.90
2018-09-23T08:58:55.582Z,61.80
2018-09-23T09:01:23.864Z,61.80
2018-09-23T09:03:51.937Z,61.80
2018-09-23T09:06:19.895Z,61.60
2018-09-23T09:08:48.111Z,61.40
2018-09-23T09:11:16.573Z,61.40
2018-09-23T09:13:44.704Z,60.10
2018-09-23T09:16:13.410Z,59.30
2018-09-23T09:18:41.568Z,59.70
2018-09-23T09:21:10.283Z,59.70
2018-09-23T09:23:38.329Z,59.30
2018-09-23T09:26:06.529Z,59.00
2018-09-23T09:28:34.475Z,58.70
2018-09-23T09:31:02.410Z,59.10
2018-09-23T09:33:30.371Z,59.60
2018-09-23T09:35:58.395Z,59.90
2018-09-23T09:38:26.582Z,60.00
2018-09-23T09:40:54.518Z,60.10
2018-09-23T09:43:22.623Z,60.20
2018-09-23T09:45:50.759Z,59.70
2018-09-23T09:48:18.703Z,59.80
2018-09-23T09:50:46.748Z,60.00
2018-09-23T09:53:14.823Z,60.00
2018-09-23T09:55:42.894Z,60.00
2018-09-23T09:58:10.872Z,59.60
2018-09-23T10:00:39.415Z,59.70
2018-09-23T10:03:07.407Z,59.70
2018-09-23T10:05:35.466Z,59.60
2018-09-23T10:08:03.495Z,59.60
2018-09-23T10:10:31.697Z,59.30
2018-09-23T10:12:59.660Z,58.80
2018-09-23T10:15:27.671Z,58.70
2018-09-23T10:17:55.841Z,58.70
2018-09-23T10:20:23.803Z,57.70
2018-09-23T10:22:52.158Z,57.50
2018-09-23T10:25:20.101Z,56.60
2018-09-23T10:27:48.118Z,57.10
2018-09-23T10:30:16.096Z,57.50
2018-09-23T10:32:44.136Z,57.00
2018-09-23T10:35:12.146Z,56.70
2018-09-23T10:37:40.100Z,55.60
2018-09-23T10:40:08.084Z,54.30
2018-09-23T10:42:36.156Z,54.20
2018-09-23T10:45:04.231Z,54.30
2018-09-23T10:47:32.293Z,54.00
2018-09-23T10:50:00.360Z,54.50
2018-09-23T10:52:28.319Z,54.60
2018-09-23T10:54:56.276Z,54.60
2018-09-23T10:57:24.199Z,54.30
2018-09-23T10:59:52.646Z,54.60
2018-09-23T11:02:20.613Z,55.40
2018-09-23T11:04:48.586Z,54.30
2018-09-23T11:07:16.968Z,54.50
2018-09-23T11:09:45.064Z,54.80
2018-09-23T11:12:13.162Z,54.70
2018-09-23T11:14:41.980Z,53.90
2018-09-23T11:17:10.076Z,54.00
2018-09-23T11:19:38.082Z,54.50
2018-09-23T11:22:06.233Z,54.50
2018-09-23T11:24:34.283Z,54.70
2018-09-23T11:27:02.239Z,55.40
2018-09-23T11:29:30.445Z,55.50
2018-09-23T11:31:58.392Z,54.80
2018-09-23T11:34:26.381Z,54.90
2018-09-23T11:36:54.616Z,55.10
2018-09-23T11:39:22.634Z,55.10
2018-09-23T11:41:50.924Z,55.00
2018-09-23T11:44:18.882Z,55.20
2018-09-23T11:46:47.667Z,55.40
2018-09-23T11:49:15.728Z,55.60
2018-09-23T11:51:43.822Z,55.90
2018-09-23T11:54:12.458Z,56.10
2018-09-23T11:56:40.480Z,56.60
2018-09-23T11:59:08.474Z,56.80
2018-09-23T12:01:36.494Z,57.50
2018-09-23T12:04:04.455Z,58.10
2018-09-23T12:06:32.430Z,59.40
2018-09-23T12:09:01.390Z,59.70
2018-09-23T12:11:29.479Z,61.00
2018-09-23T12:13:57.483Z,60.80
2018-09-23T12:16:25.484Z,61.60
2018-09-23T12:18:53.443Z,62.80
2018-09-23T12:21:21.464Z,62.90
2018-09-23T12:23:49.441Z,63.30
2018-09-23T12:26:17.507Z,63.10
2018-09-23T12:28:45.508Z,64.30
2018-09-23T12:31:13.446Z,64.10
2018-09-23T12:33:42.305Z,64.40
2018-09-23T12:36:10.305Z,64.50
2018-09-23T12:38:38.253Z,65.60
2018-09-23T12:41:06.278Z,66.00
2018-09-23T12:43:34.551Z,65.90
2018-09-23T12:46:02.592Z,66.60
2018-09-23T12:48:30.545Z,67.40
2018-09-23T12:50:58.607Z,68.00
2018-09-23T12:53:26.644Z,67.70
2018-09-23T12:55:54.602Z,67.80
2018-09-23T12:58:22.780Z,67.50
2018-09-23T13:00:50.763Z,67.40
2018-09-23T13:03:18.719Z,67.50
2018-09-23T13:05:47.191Z,67.60
2018-09-23T13:08:15.236Z,68.10
2018-09-23T13:10:43.253Z,68.10
2018-09-23T13:13:11.277Z,68.40
2018-09-23T13:15:39.243Z,68.20
2018-09-23T13:18:07.308Z,68.60
2018-09-23T13:20:35.341Z,68.50
2018-09-23T13:23:03.492Z,68.80
2018-09-23T13:25:31.441Z,68.60
2018-09-23T13:27:59.375Z,68.40
2018-09-23T13:30:27.317Z,68.40
2018-09-23T13:32:55.499Z,68.50
2018-09-23T13:35:23.447Z,68.30
2018-09-23T13:37:51.414Z,68.40
2018-09-23T13:40:19.390Z,69.00
2018-09-23T13:42:47.304Z,69.10
2018-09-23T13:45:15.329Z,69.10
2018-09-23T13:47:43.501Z,69.40
2018-09-23T13:50:11.448Z,69.50
2018-09-23T13:52:39.394Z,70.40
2018-09-23T13:55:07.344Z,70.20
2018-09-23T13:57:36.203Z,70.40
2018-09-23T14:02:38.029Z,71.10
2018-09-23T14:05:06.112Z,71.20
2018-09-23T14:07:34.232Z,71.20
2018-09-23T14:10:02.245Z,71.10
2018-09-23T14:12:30.213Z,71.10
2018-09-23T14:14:58.240Z,70.90
2018-09-23T14:17:26.258Z,70.80
2018-09-23T14:19:54.187Z,71.00
2018-09-23T14:22:22.247Z,70.90
2018-09-23T14:24:50.234Z,70.90
2018-09-23T14:27:18.186Z,70.70
2018-09-23T14:29:49.125Z,70.40
2018-09-23T14:32:17.465Z,70.60
2018-09-23T14:34:45.428Z,70.60
2018-09-23T14:37:13.437Z,70.50
2018-09-23T14:39:41.520Z,70.30
2018-09-23T14:42:09.590Z,70.60
2018-09-23T14:44:37.560Z,70.70
2018-09-23T14:47:05.770Z,70.80
2018-09-23T14:49:33.704Z,70.60
2018-09-23T14:52:01.651Z,70.70
2018-09-23T14:54:31.336Z,70.40
2018-09-23T14:56:59.313Z,70.40
2018-09-23T14:59:27.314Z,70.20
2018-09-23T15:01:55.295Z,70.20
2018-09-23T15:04:23.266Z,70.50
2018-09-23T15:06:51.353Z,70.60
2018-09-23T15:09:19.421Z,70.30
2018-09-23T15:11:47.493Z,70.40
2018-09-23T15:14:15.634Z,70.80
2018-09-23T15:16:43.618Z,70.70
2018-09-23T15:19:11.590Z,70.70
2018-09-23T15:21:39.730Z,70.60
2018-09-23T15:24:07.640Z,70.60
2018-09-23T15:26:35.607Z,70.70
2018-09-23T15:29:03.568Z,70.40
2018-09-23T15:31:31.505Z,70.80
2018-09-23T15:33:59.487Z,71.10
2018-09-23T15:36:27.483Z,71.10
2018-09-23T15:38:55.444Z,70.90
2018-09-23T15:41:24.239Z,70.80
2018-09-23T15:43:52.229Z,70.90
2018-09-23T15:46:21.203Z,70.80
2018-09-23T15:48:49.168Z,71.00
2018-09-23T15:51:17.246Z,71.10
2018-09-23T15:53:45.302Z,71.10
2018-09-23T15:56:13.391Z,71.20
2018-09-23T15:58:41.459Z,71.40
2018-09-23T16:01:09.440Z,71.40
2018-09-23T16:03:37.794Z,71.70
2018-09-23T16:06:05.790Z,71.70
2018-09-23T16:08:33.826Z,71.60
2018-09-23T16:11:01.833Z,71.50
2018-09-23T16:13:29.776Z,71.60
2018-09-23T16:15:57.775Z,71.60
2018-09-23T16:18:25.782Z,71.60
2018-09-23T16:20:53.768Z,71.50
2018-09-23T16:23:21.790Z,71.40
2018-09-23T16:25:49.808Z,71.20
2018-09-23T16:28:17.729Z,71.40
2018-09-23T16:30:45.737Z,71.50
2018-09-23T16:33:13.708Z,71.50
2018-09-23T16:35:45.179Z,71.30
2018-09-23T16:38:13.094Z,71.20
2018-09-23T16:40:41.191Z,70.90
2018-09-23T16:43:09.169Z,70.60
2018-09-23T16:45:37.133Z,70.50
2018-09-23T16:48:05.093Z,70.50
2018-09-23T16:50:33.051Z,70.60
2018-09-23T16:53:01.058Z,70.80
2018-09-23T16:55:29.052Z,70.90
2018-09-23T16:57:57.016Z,71.10
2018-09-23T17:00:25.389Z,71.00
2018-09-23T17:02:53.393Z,71.30
2018-09-23T17:05:21.328Z,71.50
2018-09-23T17:07:49.389Z,72.00
2018-09-23T17:10:17.511Z,72.00
2018-09-23T17:12:45.897Z,72.20
2018-09-23T17:15:13.895Z,72.70
2018-09-23T17:17:41.897Z,73.20
2018-09-23T17:20:09.864Z,73.00
2018-09-23T17:22:38.250Z,72.90
2018-09-23T17:25:06.215Z,72.90
2018-09-23T17:27:34.158Z,72.00
2018-09-23T17:30:02.175Z,72.20
2018-09-23T17:32:30.109Z,72.10
2018-09-23T17:34:58.127Z,72.70
2018-09-23T17:37:26.279Z,72.60
2018-09-23T17:39:54.217Z,73.30
2018-09-23T17:42:22.200Z,73.80
2018-09-23T17:44:50.158Z,74.00
2018-09-23T17:47:18.097Z,73.90
2018-09-23T17:49:46.343Z,73.20
2018-09-23T17:52:14.289Z,73.10
2018-09-23T17:54:42.242Z,72.60
2018-09-23T17:57:10.204Z,72.80
2018-09-23T17:59:38.163Z,73.20
2018-09-23T18:02:06.202Z,73.40
2018-09-23T18:04:34.143Z,73.70
2018-09-23T18:07:02.162Z,73.90
2018-09-23T18:09:30.103Z,74.20
2018-09-23T18:11:58.140Z,74.10
2018-09-23T18:14:26.361Z,72.90
2018-09-23T18:16:54.302Z,73.40
2018-09-23T18:19:22.327Z,73.60
2018-09-23T18:21:50.336Z,74.00
2018-09-23T18:24:18.363Z,73.70
2018-09-23T18:26:46.376Z,73.40
2018-09-23T18:29:14.441Z,73.90
2018-09-23T18:31:45.771Z,73.30
2018-09-23T18:34:13.725Z,74.10
2018-09-23T18:36:41.699Z,74.70
2018-09-23T18:39:10.367Z,72.70
2018-09-23T18:41:38.338Z,72.30
2018-09-23T18:44:06.331Z,72.60
2018-09-23T18:46:34.364Z,71.90
2018-09-23T18:49:02.332Z,71.40
2018-09-23T18:51:30.635Z,71.50
2018-09-23T18:54:04.169Z,71.90
2018-09-23T18:56:32.138Z,71.90
2018-09-23T18:59:00.089Z,71.50
2018-09-23T19:01:28.115Z,72.00
2018-09-23T19:03:56.211Z,72.20
2018-09-23T19:06:24.150Z,72.20
2018-09-23T19:08:52.179Z,72.30
2018-09-23T19:11:20.188Z,72.30
2018-09-23T19:13:51.358Z,72.40
2018-09-23T19:16:25.260Z,72.10
2018-09-23T19:18:53.939Z,72.60
2018-09-23T19:21:22.119Z,72.90
2018-09-23T19:23:53.796Z,72.50
2018-09-23T19:26:21.854Z,72.50
2018-09-23T19:28:49.855Z,72.70
2018-09-23T19:31:17.892Z,72.50
2018-09-23T19:33:45.979Z,72.50
2018-09-23T19:36:14.023Z,72.50
2018-09-23T19:38:42.126Z,72.30
2018-09-23T19:41:10.355Z,72.30
2018-09-23T19:43:38.580Z,72.30
2018-09-23T19:46:06.689Z,72.50
2018-09-23T19:48:34.815Z,72.60
2018-09-23T19:51:02.879Z,72.50
2018-09-23T19:53:30.888Z,72.30
2018-09-23T19:55:58.917Z,72.20
2018-09-23T19:58:26.874Z,72.30
2018-09-23T20:00:54.940Z,72.50
2018-09-23T20:03:22.904Z,72.60
2018-09-23T20:05:50.957Z,72.40
2018-09-23T20:08:19.062Z,72.30
2018-09-23T20:10:47.050Z,73.00
2018-09-23T20:13:15.006Z,73.30
2018-09-23T20:15:43.088Z,73.60
2018-09-23T20:18:10.987Z,73.90
2018-09-23T20:20:38.947Z,73.90
2018-09-23T20:23:07.308Z,74.30
2018-09-23T20:25:35.348Z,75.00
2018-09-23T20:28:03.480Z,74.00
2018-09-23T20:30:31.423Z,73.70
2018-09-23T20:32:59.407Z,73.40
2018-09-23T20:38:01.732Z,73.90
2018-09-23T20:40:29.708Z,74.20
2018-09-23T20:42:57.645Z,74.50
2018-09-23T20:45:25.598Z,74.80
2018-09-23T20:47:53.539Z,74.90
2018-09-23T20:50:21.690Z,75.10
2018-09-23T20:52:49.740Z,75.30
2018-09-23T20:55:17.703Z,75.60
2018-09-23T20:57:45.660Z,75.70
2018-09-23T21:00:13.600Z,75.40
2018-09-23T21:02:41.680Z,75.10
2018-09-23T21:05:09.621Z,74.30
2018-09-23T21:07:37.923Z,74.80
2018-09-23T21:10:06.027Z,75.50
2018-09-23T21:12:33.972Z,74.70
2018-09-23T21:15:01.920Z,74.20
2018-09-23T21:17:29.980Z,74.30
2018-09-23T21:19:57.936Z,73.90
2018-09-23T21:22:26.135Z,73.80
2018-09-23T21:24:54.088Z,73.80
2018-09-23T21:27:22.024Z,73.70
2018-09-23T21:29:50.011Z,74.00
2018-09-23T21:32:19.032Z,74.00
2018-09-23T21:34:47.025Z,74.00
2018-09-23T21:37:15.046Z,73.90
2018-09-23T21:39:43.016Z,73.90
2018-09-23T21:42:10.978Z,73.90
2018-09-23T21:44:39.206Z,74.00
2018-09-23T21:47:07.250Z,74.60
2018-09-23T21:49:35.191Z,74.30
2018-09-23T21:52:03.130Z,74.00
2018-09-23T21:54:31.088Z,73.60
2018-09-23T21:56:59.102Z,74.00
2018-09-23T21:59:27.077Z,74.10
2018-09-23T22:01:55.043Z,74.20
2018-09-23T22:04:23.020Z,74.30
2018-09-23T22:06:50.950Z,74.50
2018-09-23T22:09:18.959Z,74.50
2018-09-23T22:11:46.924Z,74.50
2018-09-23T22:14:14.876Z,74.40
2018-09-23T22:16:42.882Z,74.50
2018-09-23T22:19:10.835Z,74.40
2018-09-23T22:21:38.790Z,74.40
2018-09-23T22:24:06.802Z,74.20
2018-09-23T22:26:35.117Z,74.80
2018-09-23T22:29:03.051Z,74.70
2018-09-23T22:31:30.985Z,74.80
2018-09-23T22:33:58.957Z,74.90
2018-09-23T22:36:26.934Z,75.40
2018-09-23T22:38:54.875Z,76.10
2018-09-23T22:41:22.830Z,76.40
2018-09-23T22:43:50.818Z,76.70
2018-09-23T22:46:18.750Z,76.70
2018-09-23T22:48:46.715Z,76.80
2018-09-23T22:51:14.651Z,77.00
2018-09-23T22:53:42.633Z,77.10
2018-09-23T22:56:10.583Z,76.90
2018-09-23T22:58:38.531Z,76.90
2018-09-23T23:01:06.474Z,76.80
2018-09-23T23:03:34.425Z,76.50
2018-09-23T23:06:02.614Z,76.30
2018-09-23T23:08:30.617Z,76.20
2018-09-23T23:10:58.554Z,76.30
2018-09-23T23:13:26.506Z,76.50
2018-09-23T23:15:54.455Z,76.50
2018-09-23T23:18:22.403Z,76.90
2018-09-23T23:20:50.330Z,76.90
2018-09-23T23:23:18.284Z,77.00
2018-09-23T23:25:46.230Z,77.00
2018-09-23T23:28:14.163Z,76.60
2018-09-23T23:30:42.131Z,76.30
2018-09-23T23:33:10.060Z,76.00
2018-09-23T23:35:38.010Z,76.20
2018-09-23T23:38:06.038Z,76.40
2018-09-23T23:40:33.994Z,76.30
2018-09-23T23:43:02.006Z,76.10
2018-09-23T23:45:29.968Z,75.80
2018-09-23T23:47:57.933Z,75.60
2018-09-23T23:50:25.874Z,75.90
2018-09-23T23:52:53.819Z,75.80
2018-09-23T23:55:21.883Z,76.00
2018-09-23T23:57:49.815Z,76.20
